createdAt,value
2022-12-11T00:00:46.727Z,2.22
2022-12-11T00:03:16.519Z,2.92
2022-12-11T00:05:46.513Z,2.60
2022-12-11T00:08:17.132Z,3.20
2022-12-11T00:10:51.313Z,3.45
2022-12-11T00:13:21.049Z,2.25
2022-12-11T00:15:50.260Z,2.83
2022-12-11T00:18:19.959Z,3.10
2022-12-11T00:20:48.991Z,2.42
2022-12-11T00:23:18.400Z,3.30
2022-12-11T00:25:48.003Z,2.63
2022-12-11T00:28:19.473Z,3.47
2022-12-11T00:30:48.817Z,4.82
2022-12-11T00:33:18.186Z,4.53
2022-12-11T00:35:47.700Z,3.78
2022-12-11T00:38:17.538Z,3.35
2022-12-11T00:40:46.984Z,5.07
2022-12-11T00:43:16.670Z,3.53
2022-12-11T00:45:47.032Z,2.85
2022-12-11T00:48:17.078Z,2.95
2022-12-11T00:50:46.647Z,3.03
2022-12-11T00:53:16.259Z,4.03
2022-12-11T00:55:45.976Z,4.70
2022-12-11T00:58:16.152Z,5.03
2022-12-11T01:00:45.930Z,5.05
2022-12-11T01:03:16.021Z,3.17
2022-12-11T01:06:06.218Z,3.38
2022-12-11T01:08:38.666Z,3.33
2022-12-11T01:11:09.441Z,3.83
2022-12-11T01:13:39.024Z,4.10
2022-12-11T01:16:15.560Z,5.10
2022-12-11T01:18:45.137Z,3.95
2022-12-11T01:21:14.635Z,3.63
2022-12-11T01:23:43.745Z,4.03
2022-12-11T01:26:14.273Z,3.58
2022-12-11T01:28:43.323Z,3.53
2022-12-11T01:31:16.292Z,3.42
2022-12-11T01:33:45.911Z,3.30
2022-12-11T01:36:16.658Z,4.68
2022-12-11T01:38:46.153Z,4.38
2022-12-11T01:41:15.846Z,4.22
2022-12-11T01:44:00.348Z,3.38
2022-12-11T01:46:32.954Z,4.50
2022-12-11T01:49:03.198Z,5.05
2022-12-11T01:51:33.490Z,4.18
2022-12-11T01:54:03.416Z,4.20
2022-12-11T01:56:32.825Z,6.55
2022-12-11T01:59:07.497Z,5.30
2022-12-11T02:01:39.217Z,5.75
2022-12-11T02:04:08.966Z,5.47
2022-12-11T02:06:39.558Z,5.03
2022-12-11T02:09:13.321Z,4.53
2022-12-11T02:11:52.117Z,5.35
2022-12-11T02:14:33.090Z,6.65
2022-12-11T02:17:08.442Z,6.45
2022-12-11T02:19:51.123Z,6.07
2022-12-11T02:22:36.560Z,4.32
2022-12-11T02:25:09.833Z,5.57
2022-12-11T02:27:45.985Z,4.47
2022-12-11T02:30:16.843Z,6.35
2022-12-11T02:32:51.662Z,6.68
2022-12-11T02:35:32.277Z,8.75
2022-12-11T02:38:10.409Z,5.30
2022-12-11T02:40:41.423Z,6.75
2022-12-11T02:43:14.126Z,6.63
2022-12-11T02:45:44.249Z,5.53
2022-12-11T02:48:14.123Z,5.32
2022-12-11T02:50:48.078Z,6.65
2022-12-11T02:53:19.678Z,5.82
2022-12-11T02:55:49.843Z,6.05
2022-12-11T02:58:20.394Z,7.00
2022-12-11T03:00:49.967Z,5.88
2022-12-11T03:03:19.524Z,6.57
2022-12-11T03:05:49.827Z,4.55
2022-12-11T03:08:19.884Z,7.38
2022-12-11T03:10:49.647Z,6.60
2022-12-11T03:13:20.181Z,7.00
2022-12-11T03:16:08.415Z,6.50
2022-12-11T03:18:41.925Z,5.22
2022-12-11T03:21:13.695Z,7.40
2022-12-11T03:23:51.859Z,6.60
2022-12-11T03:26:21.669Z,4.53
2022-12-11T03:28:51.406Z,6.75
2022-12-11T03:31:31.530Z,6.55
2022-12-11T03:34:02.425Z,7.55
2022-12-11T03:36:38.878Z,7.03
2022-12-11T03:39:09.755Z,6.78
2022-12-11T03:41:38.985Z,6.43
2022-12-11T03:44:08.630Z,6.82
2022-12-11T03:46:38.644Z,7.07
2022-12-11T03:49:09.317Z,7.07
2022-12-11T03:51:38.834Z,6.95
2022-12-11T03:54:08.821Z,8.30
2022-12-11T03:56:37.900Z,8.52
2022-12-11T03:59:07.194Z,8.18
2022-12-11T04:01:36.721Z,9.00
2022-12-11T04:04:06.049Z,7.88
2022-12-11T04:06:35.188Z,7.25
2022-12-11T04:09:04.316Z,6.50
2022-12-11T04:11:36.945Z,6.95
2022-12-11T04:14:29.704Z,6.90
2022-12-11T04:17:00.363Z,7.88
2022-12-11T04:19:48.320Z,6.10
2022-12-11T04:22:37.193Z,7.47
2022-12-11T04:25:08.782Z,7.03
2022-12-11T04:27:51.414Z,6.30
2022-12-11T04:30:28.014Z,6.85
2022-12-11T04:32:59.719Z,6.80
2022-12-11T04:35:29.344Z,6.07
2022-12-11T04:37:59.779Z,8.48
2022-12-11T04:40:29.798Z,7.63
2022-12-11T04:43:00.221Z,7.15
2022-12-11T04:45:30.141Z,7.13
2022-12-11T04:48:00.750Z,6.28
2022-12-11T04:50:30.464Z,5.07
2022-12-11T04:53:00.209Z,6.97
2022-12-11T04:55:29.877Z,5.30
2022-12-11T04:57:59.642Z,5.80
2022-12-11T05:00:29.619Z,4.82
2022-12-11T05:02:59.316Z,5.80
2022-12-11T05:05:29.305Z,4.57
2022-12-11T05:07:58.987Z,4.32
2022-12-11T05:10:28.842Z,4.10
2022-12-11T05:12:59.266Z,4.35
2022-12-11T05:15:28.922Z,3.60
2022-12-11T05:17:58.713Z,3.63
2022-12-11T05:20:28.444Z,4.43
2022-12-11T05:22:58.527Z,4.38
2022-12-11T05:25:28.444Z,3.13
2022-12-11T05:27:58.492Z,3.63
2022-12-11T05:30:28.578Z,4.82
2022-12-11T05:33:01.653Z,3.83
2022-12-11T05:35:31.267Z,5.43
2022-12-11T05:38:01.319Z,4.97
2022-12-11T05:40:32.962Z,6.85
2022-12-11T05:43:03.268Z,11.27
2022-12-11T05:45:33.280Z,9.93
2022-12-11T05:48:06.230Z,10.02
2022-12-11T05:50:36.486Z,9.43
2022-12-11T05:53:10.278Z,14.10
2022-12-11T05:55:40.962Z,13.95
2022-12-11T05:58:13.506Z,13.48
2022-12-11T06:00:43.528Z,14.38
2022-12-11T06:03:12.852Z,12.70
2022-12-11T06:05:42.764Z,9.80
2022-12-11T06:08:12.401Z,9.35
2022-12-11T06:10:46.898Z,4.18
2022-12-11T06:13:17.320Z,7.45
2022-12-11T06:15:47.496Z,6.40
2022-12-11T06:18:17.027Z,4.03
2022-12-11T06:20:47.501Z,4.38
2022-12-11T06:23:17.129Z,3.10
2022-12-11T06:25:46.686Z,3.10
2022-12-11T06:28:16.368Z,4.30
2022-12-11T06:30:46.120Z,2.38
2022-12-11T06:33:16.539Z,1.17
2022-12-11T06:35:46.215Z,3.17
2022-12-11T06:38:15.749Z,1.08
2022-12-11T06:40:45.593Z,3.15
2022-12-11T06:43:15.640Z,3.00
2022-12-11T06:45:45.764Z,1.52
2022-12-11T06:48:15.373Z,2.60
2022-12-11T06:50:44.981Z,1.52
2022-12-11T06:53:15.196Z,1.83
2022-12-11T06:55:45.523Z,3.42
2022-12-11T06:58:15.359Z,3.22
2022-12-11T07:00:45.113Z,3.15
2022-12-11T07:03:14.961Z,2.20
2022-12-11T07:05:44.855Z,3.05
2022-12-11T07:08:14.533Z,3.13
2022-12-11T07:10:44.228Z,2.97
2022-12-11T07:13:16.705Z,2.38
2022-12-11T07:15:47.687Z,3.80
2022-12-11T07:18:17.509Z,1.27
2022-12-11T07:20:46.621Z,2.65
2022-12-11T07:23:15.620Z,3.55
2022-12-11T07:25:44.740Z,2.47
2022-12-11T07:28:16.670Z,1.80
2022-12-11T07:30:46.401Z,3.67
2022-12-11T07:33:15.495Z,1.48
2022-12-11T07:35:44.547Z,3.13
2022-12-11T07:38:13.647Z,2.50
2022-12-11T07:40:43.314Z,2.83
2022-12-11T07:43:13.249Z,2.20
2022-12-11T07:45:44.628Z,5.60
2022-12-11T07:48:15.406Z,3.65
2022-12-11T07:50:45.387Z,1.98
2022-12-11T07:53:18.030Z,3.38
2022-12-11T07:55:57.008Z,3.20
2022-12-11T07:58:27.262Z,3.13
2022-12-11T08:00:56.987Z,3.75
2022-12-11T08:03:30.038Z,4.30
2022-12-11T08:06:00.255Z,2.97
2022-12-11T08:08:30.211Z,3.10
2022-12-11T08:11:07.342Z,3.33
2022-12-11T08:13:39.390Z,3.33
2022-12-11T08:16:10.504Z,4.18
2022-12-11T08:18:41.869Z,3.47
2022-12-11T08:21:12.965Z,3.05
2022-12-11T08:23:42.538Z,3.10
2022-12-11T08:26:13.180Z,3.88
2022-12-11T08:28:42.503Z,4.70
2022-12-11T08:31:11.874Z,5.07
2022-12-11T08:33:42.108Z,3.30
2022-12-11T08:36:11.942Z,4.38
2022-12-11T08:38:41.441Z,5.38
2022-12-11T08:41:14.411Z,2.38
2022-12-11T08:43:43.732Z,3.28
2022-12-11T08:46:13.714Z,3.20
2022-12-11T08:48:44.221Z,3.25
2022-12-11T08:51:14.872Z,3.17
2022-12-11T08:53:44.278Z,5.50
2022-12-11T08:56:15.227Z,3.03
2022-12-11T08:58:45.308Z,2.25
2022-12-11T09:01:15.329Z,2.55
2022-12-11T09:03:44.888Z,2.05
2022-12-11T09:06:16.028Z,3.85
2022-12-11T09:08:51.681Z,3.03
2022-12-11T09:11:28.488Z,2.47
2022-12-11T09:14:02.114Z,3.78
2022-12-11T09:16:35.790Z,6.13
2022-12-11T09:19:06.220Z,6.25
2022-12-11T09:21:36.001Z,6.40
2022-12-11T09:24:05.681Z,4.82
2022-12-11T09:26:34.960Z,3.05
2022-12-11T09:29:04.429Z,4.20
2022-12-11T09:31:34.343Z,3.13
2022-12-11T09:34:07.724Z,5.45
2022-12-11T09:36:37.429Z,6.30
2022-12-11T09:39:07.269Z,4.28
2022-12-11T09:41:36.422Z,6.03
2022-12-11T09:44:09.046Z,6.10
2022-12-11T09:46:38.423Z,5.72
2022-12-11T09:49:11.634Z,4.25
2022-12-11T09:51:42.141Z,4.88
2022-12-11T09:54:12.260Z,5.00
2022-12-11T09:56:44.803Z,6.33
2022-12-11T09:59:30.739Z,5.82
2022-12-11T10:01:59.942Z,4.55
2022-12-11T10:04:41.677Z,7.15
2022-12-11T10:07:14.616Z,6.43
2022-12-11T10:09:56.114Z,2.03
2022-12-11T10:12:25.216Z,3.53
2022-12-11T10:15:14.466Z,5.17
2022-12-11T10:17:46.454Z,5.88
2022-12-11T10:20:32.804Z,6.50
2022-12-11T10:23:02.830Z,5.53
2022-12-11T10:25:33.812Z,6.13
2022-12-11T10:28:11.664Z,7.00
2022-12-11T10:30:57.200Z,2.60
2022-12-11T10:33:37.135Z,1.55
2022-12-11T10:36:07.825Z,2.33
2022-12-11T10:38:44.423Z,1.73
2022-12-11T10:41:22.439Z,3.17
2022-12-11T10:43:53.320Z,3.05
2022-12-11T10:46:24.300Z,3.43
2022-12-11T10:48:54.662Z,3.70
2022-12-11T10:51:25.133Z,3.40
2022-12-11T10:53:55.786Z,5.70
2022-12-11T10:56:31.703Z,5.00
2022-12-11T10:59:04.020Z,4.87
2022-12-11T11:01:34.427Z,5.23
2022-12-11T11:04:08.230Z,2.10
2022-12-11T11:06:38.485Z,4.33
2022-12-11T11:09:24.319Z,2.10
2022-12-11T11:11:54.062Z,1.95
2022-12-11T11:14:23.774Z,3.13
2022-12-11T11:16:53.792Z,2.20
2022-12-11T11:19:24.763Z,2.13
2022-12-11T11:21:54.759Z,2.80
2022-12-11T11:24:38.056Z,0.27
2022-12-11T11:27:26.858Z,1.47
2022-12-11T11:29:56.770Z,2.33
2022-12-11T11:32:28.628Z,1.93
2022-12-11T11:35:14.976Z,2.43
2022-12-11T11:37:47.178Z,2.13
2022-12-11T11:40:27.740Z,1.83
2022-12-11T11:43:16.457Z,1.97
2022-12-11T11:45:49.131Z,0.30
2022-12-11T11:48:22.324Z,3.73
2022-12-11T11:50:53.032Z,2.47
2022-12-11T11:53:32.030Z,3.37
2022-12-11T11:56:08.135Z,2.00
2022-12-11T11:58:50.512Z,3.10
2022-12-11T12:01:21.135Z,1.70
2022-12-11T12:03:50.803Z,1.17
2022-12-11T12:06:33.166Z,3.70
2022-12-11T12:09:22.782Z,1.47
2022-12-11T12:12:02.196Z,4.37
2022-12-11T12:14:52.075Z,1.57
2022-12-11T12:17:25.936Z,2.00
2022-12-11T12:19:59.658Z,3.17
2022-12-11T12:22:47.397Z,1.50
2022-12-11T12:25:26.635Z,2.57
2022-12-11T12:28:15.549Z,2.40
2022-12-11T12:30:48.794Z,2.10
2022-12-11T12:33:36.968Z,3.83
2022-12-11T12:36:25.560Z,1.60
2022-12-11T12:38:57.043Z,4.30
2022-12-11T12:41:35.032Z,1.50
2022-12-11T12:44:14.911Z,3.10
2022-12-11T12:47:03.570Z,2.67
2022-12-11T12:49:37.936Z,3.30
2022-12-11T12:52:34.001Z,0.67
2022-12-11T12:55:26.453Z,1.77
2022-12-11T12:58:08.831Z,1.77
2022-12-11T13:00:39.696Z,4.50
2022-12-11T13:03:15.833Z,3.47
2022-12-11T13:08:14.289Z,1.50
2022-12-11T13:10:44.106Z,1.03
2022-12-11T13:13:51.598Z,1.10
2022-12-11T13:16:27.931Z,2.57
2022-12-11T13:18:57.463Z,1.93
2022-12-11T13:21:37.114Z,2.87
2022-12-11T13:24:26.419Z,2.53
2022-12-11T13:26:56.816Z,3.03
2022-12-11T13:29:37.802Z,2.77
2022-12-11T13:32:13.048Z,4.47
2022-12-11T13:34:43.186Z,4.83
2022-12-11T13:37:30.711Z,3.60
2022-12-11T13:40:00.222Z,3.63
2022-12-11T13:42:31.732Z,6.00
2022-12-11T13:45:01.630Z,4.97
2022-12-11T13:47:31.295Z,5.07
2022-12-11T13:50:27.287Z,5.07
2022-12-11T13:52:57.887Z,6.70
2022-12-11T13:55:37.038Z,14.97
2022-12-11T13:58:19.458Z,16.47
2022-12-11T14:01:15.301Z,19.83
2022-12-11T14:06:18.818Z,11.20
2022-12-11T14:08:50.811Z,5.43
2022-12-11T14:11:24.425Z,4.23
2022-12-11T14:13:57.810Z,2.00
2022-12-11T14:16:28.331Z,4.50
2022-12-11T14:18:59.883Z,5.67
2022-12-11T14:21:29.685Z,3.60
2022-12-11T14:23:59.657Z,4.63
2022-12-11T14:26:30.259Z,3.60
2022-12-11T14:28:59.934Z,3.00
2022-12-11T14:31:29.053Z,4.50
2022-12-11T14:34:13.390Z,2.83
2022-12-11T14:36:43.547Z,2.17
2022-12-11T14:39:16.631Z,4.57
2022-12-11T14:41:55.568Z,6.73
2022-12-11T14:44:25.716Z,3.80
2022-12-11T14:46:56.553Z,4.90
2022-12-11T14:49:33.737Z,5.57
2022-12-11T14:52:05.882Z,4.97
2022-12-11T14:54:42.828Z,5.63
2022-12-11T14:57:26.003Z,4.30
2022-12-11T15:00:02.436Z,5.50
2022-12-11T15:02:35.401Z,5.80
2022-12-11T15:05:04.709Z,4.53
2022-12-11T15:07:34.549Z,6.33
2022-12-11T15:10:04.600Z,4.77
2022-12-11T15:12:34.199Z,5.57
2022-12-11T15:15:05.294Z,8.63
2022-12-11T15:17:35.311Z,9.20
2022-12-11T15:20:05.640Z,10.30
2022-12-11T15:22:35.030Z,7.50
2022-12-11T15:25:04.330Z,6.57
2022-12-11T15:27:39.608Z,4.53
2022-12-11T15:30:27.271Z,4.80
2022-12-11T15:33:07.456Z,6.03
2022-12-11T15:35:37.550Z,5.83
2022-12-11T15:38:07.461Z,4.30
2022-12-11T15:40:37.021Z,4.30
2022-12-11T15:43:07.003Z,4.40
2022-12-11T15:45:36.554Z,4.33
2022-12-11T15:48:06.908Z,3.67
2022-12-11T15:50:37.157Z,4.13
2022-12-11T15:53:09.383Z,3.73
2022-12-11T15:55:39.416Z,4.57
2022-12-11T15:58:11.024Z,3.00
2022-12-11T16:00:40.821Z,2.30
2022-12-11T16:03:13.410Z,2.57
2022-12-11T16:05:44.458Z,2.23
2022-12-11T16:08:18.885Z,3.10
2022-12-11T16:10:48.710Z,3.23
2022-12-11T16:13:17.880Z,3.23
2022-12-11T16:15:48.637Z,3.47
2022-12-11T16:18:19.130Z,2.53
2022-12-11T16:20:48.648Z,3.20
2022-12-11T16:23:18.264Z,3.53
2022-12-11T16:25:47.420Z,4.43
2022-12-11T16:28:18.672Z,2.87
2022-12-11T16:30:48.187Z,2.87
2022-12-11T16:33:17.435Z,2.13
2022-12-11T16:35:46.600Z,3.30
2022-12-11T16:38:15.622Z,2.37
2022-12-11T16:40:46.086Z,1.97
2022-12-11T16:43:15.326Z,2.47
2022-12-11T16:45:44.333Z,3.93
2022-12-11T16:48:13.323Z,5.20
2022-12-11T16:50:42.674Z,6.47
2022-12-11T16:53:15.197Z,2.57
2022-12-11T16:55:44.693Z,4.83
2022-12-11T16:58:20.630Z,5.07
2022-12-11T17:00:50.721Z,5.18
2022-12-11T17:03:22.762Z,7.30
2022-12-11T17:05:52.338Z,7.50
2022-12-11T17:08:21.947Z,10.10
2022-12-11T17:10:50.971Z,9.90
2022-12-11T17:13:21.427Z,8.60
2022-12-11T17:15:51.305Z,9.03
2022-12-11T17:18:20.887Z,5.20
2022-12-11T17:20:50.268Z,6.60
2022-12-11T17:23:19.573Z,5.40
2022-12-11T17:25:49.055Z,4.53
2022-12-11T17:28:18.125Z,3.63
2022-12-11T17:30:49.388Z,5.73
2022-12-11T17:33:18.679Z,3.47
2022-12-11T17:35:47.694Z,5.87
2022-12-11T17:38:16.709Z,5.07
2022-12-11T17:40:45.940Z,5.10
2022-12-11T17:43:15.034Z,6.43
2022-12-11T17:45:45.023Z,3.77
2022-12-11T17:48:14.353Z,3.03
2022-12-11T17:50:43.785Z,2.60
2022-12-11T17:53:13.666Z,3.23
2022-12-11T17:55:46.186Z,3.03
2022-12-11T17:58:20.769Z,2.27
2022-12-11T18:00:50.625Z,4.37
2022-12-11T18:03:19.727Z,2.73
2022-12-11T18:05:49.816Z,2.37
2022-12-11T18:08:23.759Z,4.33
2022-12-11T18:10:56.648Z,2.67
2022-12-11T18:13:27.648Z,2.63
2022-12-11T18:16:07.669Z,3.73
2022-12-11T18:18:38.309Z,1.47
2022-12-11T18:21:07.991Z,2.13
2022-12-11T18:23:38.478Z,4.80
2022-12-11T18:26:08.042Z,2.90
2022-12-11T18:28:41.209Z,2.77
2022-12-11T18:31:11.656Z,3.93
2022-12-11T18:33:41.783Z,4.13
2022-12-11T18:36:11.761Z,1.53
2022-12-11T18:38:41.379Z,1.97
2022-12-11T18:41:11.556Z,4.63
2022-12-11T18:43:43.244Z,1.73
2022-12-11T18:46:15.263Z,2.43
2022-12-11T18:48:46.238Z,2.67
2022-12-11T18:51:18.305Z,3.50
2022-12-11T18:53:48.334Z,3.03
2022-12-11T18:56:18.681Z,3.67
2022-12-11T18:58:48.611Z,4.17
2022-12-11T19:01:22.211Z,4.57
2022-12-11T19:04:00.451Z,2.00
2022-12-11T19:06:33.730Z,4.47
2022-12-11T19:09:03.320Z,3.37
2022-12-11T19:11:32.776Z,2.53
2022-12-11T19:14:02.155Z,2.50
2022-12-11T19:16:34.313Z,2.03
2022-12-11T19:19:07.633Z,2.97
2022-12-11T19:21:38.340Z,1.80
2022-12-11T19:24:08.673Z,2.73
2022-12-11T19:26:37.790Z,1.73
2022-12-11T19:29:06.986Z,2.80
2022-12-11T19:31:36.533Z,1.90
2022-12-11T19:34:06.361Z,1.47
2022-12-11T19:36:37.978Z,3.03
2022-12-11T19:39:12.601Z,1.80
2022-12-11T19:41:42.429Z,2.80
2022-12-11T19:44:11.958Z,3.57
2022-12-11T19:46:41.580Z,2.23
2022-12-11T19:49:12.368Z,4.13
2022-12-11T19:51:42.059Z,0.87
2022-12-11T19:54:13.743Z,3.00
2022-12-11T19:56:43.798Z,4.63
2022-12-11T19:59:14.652Z,5.07
2022-12-11T20:01:44.300Z,4.03
2022-12-11T20:04:13.410Z,2.93
2022-12-11T20:06:43.527Z,3.47
2022-12-11T20:09:12.923Z,3.00
2022-12-11T20:11:42.429Z,4.27
2022-12-11T20:14:21.763Z,3.53
2022-12-11T20:19:42.284Z,1.47
2022-12-11T20:22:12.242Z,2.33
2022-12-11T20:24:42.214Z,1.07
2022-12-11T20:27:13.511Z,2.60
2022-12-11T20:29:43.791Z,2.73
2022-12-11T20:32:13.491Z,1.73
2022-12-11T20:34:43.674Z,2.37
2022-12-11T20:37:13.720Z,2.83
2022-12-11T20:39:43.543Z,3.53
2022-12-11T20:42:12.801Z,2.50
2022-12-11T20:44:47.265Z,1.47
2022-12-11T20:49:51.695Z,1.90
2022-12-11T20:52:21.810Z,2.60
2022-12-11T20:54:51.443Z,1.80
2022-12-11T20:57:21.062Z,2.03
2022-12-11T20:59:50.821Z,0.13
2022-12-11T21:02:23.365Z,1.53
2022-12-11T21:04:54.431Z,1.60
2022-12-11T21:07:24.170Z,3.50
2022-12-11T21:09:53.886Z,0.83
2022-12-11T21:12:29.830Z,2.77
2022-12-11T21:15:01.486Z,1.63
2022-12-11T21:17:31.004Z,4.63
2022-12-11T21:20:01.246Z,1.10
2022-12-11T21:22:30.851Z,1.37
2022-12-11T21:25:00.915Z,1.60
2022-12-11T21:27:30.764Z,2.43
2022-12-11T21:30:00.381Z,2.07
2022-12-11T21:32:31.092Z,3.00
2022-12-11T21:35:04.350Z,2.93
2022-12-11T21:37:34.890Z,1.93
2022-12-11T21:40:04.920Z,2.47
2022-12-11T21:42:34.533Z,2.83
2022-12-11T21:47:54.343Z,0.83
2022-12-11T21:50:23.566Z,1.57
2022-12-11T21:52:53.118Z,3.30
2022-12-11T21:55:22.486Z,1.90
2022-12-11T21:57:51.841Z,2.77
2022-12-11T22:00:26.609Z,1.77
2022-12-11T22:02:55.991Z,2.33
2022-12-11T22:05:25.542Z,2.10
2022-12-11T22:07:55.404Z,1.97
2022-12-11T22:10:24.691Z,3.13
2022-12-11T22:12:53.806Z,5.53
2022-12-11T22:15:22.846Z,3.47
2022-12-11T22:17:54.515Z,4.10
2022-12-11T22:20:24.545Z,4.20
2022-12-11T22:22:53.837Z,2.63
2022-12-11T22:25:23.003Z,5.33
2022-12-11T22:27:52.751Z,2.13
2022-12-11T22:30:22.431Z,0.10
2022-12-11T22:32:52.140Z,1.73
2022-12-11T22:35:26.874Z,3.37
2022-12-11T22:37:57.606Z,1.00
2022-12-11T22:40:27.991Z,3.30
2022-12-11T22:42:57.845Z,2.80
2022-12-11T22:45:27.708Z,2.93
2022-12-11T22:47:57.281Z,2.80
2022-12-11T22:50:26.864Z,2.10
2022-12-11T22:52:57.261Z,1.10
2022-12-11T22:55:27.640Z,0.40
2022-12-11T22:58:00.179Z,0.73
2022-12-11T23:00:30.479Z,2.03
2022-12-11T23:03:00.770Z,2.43
2022-12-11T23:05:31.365Z,2.70
2022-12-11T23:08:01.218Z,3.43
2022-12-11T23:10:31.287Z,1.50
2022-12-11T23:13:01.072Z,1.07
2022-12-11T23:15:30.877Z,1.67
2022-12-11T23:18:00.607Z,2.53
2022-12-11T23:20:30.312Z,2.97
2022-12-11T23:22:59.814Z,16.40
2022-12-11T23:25:30.075Z,18.30
2022-12-11T23:28:00.216Z,17.10
2022-12-11T23:30:29.840Z,12.13
2022-12-11T23:32:59.566Z,15.80
2022-12-11T23:35:29.105Z,3.00
2022-12-11T23:37:58.704Z,5.17
2022-12-11T23:40:28.291Z,3.87
2022-12-11T23:42:57.885Z,3.83
2022-12-11T23:45:27.629Z,3.63
2022-12-11T23:47:57.652Z,5.13
2022-12-11T23:50:28.194Z,13.77
2022-12-11T23:52:58.051Z,15.13
2022-12-11T23:55:31.163Z,12.60
2022-12-11T23:58:01.877Z,13.07
